Time;durP1;ratioP1;P1;durP2;ratioP2;P2;SDS_P1;SDS_P2;PMS_P1;PMS_P2;Temp;Humidity;BMP_temperature;BMP_pressure;BME280_temperature;BME280_humidity;BME280_pressure;Samples;Min_cycle;Max_cycle;Signal;HPM_P1;HPM_P2
2023/02/03 05:01:37;;;;;;;1.45;1.45;;;8.00;99.90;;;;;;5362419;23;20234;-67
2023/02/03 05:04:04;;;;;;;2.80;2.58;;;8.00;99.90;;;;;;4911028;29;20223;-66
2023/02/03 05:06:31;;;;;;;3.25;1.25;;;8.00;99.90;;;;;;4917174;29;20216;-67
2023/02/03 05:08:59;;;;;;;2.17;1.45;;;8.00;99.90;;;;;;4920640;29;20223;-66
2023/02/03 05:11:26;;;;;;;3.70;2.50;;;8.00;99.90;;;;;;4920225;29;20593;-67
2023/02/03 05:13:54;;;;;;;1.60;1.50;;;8.00;99.90;;;;;;4920464;29;20295;-67
2023/02/03 05:16:21;;;;;;;1.85;1.75;;;8.00;99.90;;;;;;4962162;23;20254;-70
2023/02/03 05:18:49;;;;;;;1.58;1.58;;;8.10;99.90;;;;;;4950595;28;20616;-70
2023/02/03 05:21:16;;;;;;;3.05;2.47;;;8.00;99.90;;;;;;4951348;28;20236;-70
2023/02/03 05:23:43;;;;;;;2.03;1.95;;;8.00;99.90;;;;;;4951570;29;20207;-70
2023/02/03 05:26:10;;;;;;;4.45;3.00;;;8.00;99.90;;;;;;4939794;28;20236;-69
2023/02/03 05:28:36;;;;;;;1.77;1.77;;;8.00;99.90;;;;;;4934594;29;20213;-70
2023/02/03 05:31:04;;;;;;;3.45;2.90;;;8.00;99.90;;;;;;4935908;29;20202;-70
2023/02/03 05:33:31;;;;;;;1.80;1.80;;;8.00;99.90;;;;;;4935461;29;20207;-70
2023/02/03 05:35:59;;;;;;;2.05;1.92;;;8.00;99.90;;;;;;4935279;29;20766;-71
2023/02/03 05:38:26;;;;;;;2.05;1.50;;;8.00;99.90;;;;;;4933941;29;20211;-71
2023/02/03 05:43:38;;;;;;;1.52;1.52;;;7.90;99.90;;;;;;4934971;29;20560;-69
2023/02/03 05:46:06;;;;;;;1.65;1.52;;;8.00;99.90;;;;;;4933792;29;20235;-70
2023/02/03 05:48:34;;;;;;;1.50;1.50;;;8.00;99.90;;;;;;4934002;29;20208;-70
2023/02/03 05:51:02;;;;;;;0.80;0.80;;;8.00;99.90;;;;;;4928915;29;20215;-70
2023/02/03 05:53:29;;;;;;;1.55;1.55;;;8.00;99.90;;;;;;4929800;29;20219;-70
2023/02/03 05:55:56;;;;;;;1.20;1.20;;;8.00;99.90;;;;;;4935947;29;20227;-68
2023/02/03 05:58:22;;;;;;;1.27;1.25;;;8.00;99.90;;;;;;4935184;29;20217;-69
2023/02/03 06:00:49;;;;;;;1.35;1.35;;;8.00;99.90;;;;;;4933462;29;20232;-70
2023/02/03 06:03:16;;;;;;;1.85;1.75;;;8.00;99.90;;;;;;4938892;29;20204;-67
2023/02/03 06:05:43;;;;;;;1.80;1.63;;;8.00;99.90;;;;;;4935165;29;20223;-67
2023/02/03 06:08:12;;;;;;;1.42;1.10;;;8.00;99.90;;;;;;4934761;29;20221;-69
2023/02/03 06:10:38;;;;;;;3.35;3.13;;;8.00;99.90;;;;;;4936081;29;20729;-69
2023/02/03 06:13:10;;;;;;;1.17;1.17;;;8.00;99.90;;;;;;4931520;29;20311;-70
2023/02/03 06:15:37;;;;;;;1.55;1.35;;;8.00;99.90;;;;;;4928510;29;20280;-69
2023/02/03 06:18:04;;;;;;;1.90;1.85;;;8.00;99.90;;;;;;4933594;29;20212;-68
2023/02/03 06:20:31;;;;;;;1.10;1.10;;;8.00;99.90;;;;;;4930244;29;20240;-69
2023/02/03 06:22:58;;;;;;;1.90;1.73;;;8.00;99.90;;;;;;4933377;29;20235;-70
2023/02/03 06:25:26;;;;;;;0.90;0.90;;;8.00;99.90;;;;;;4933842;29;20225;-69
2023/02/03 06:27:53;;;;;;;1.58;1.50;;;8.00;99.90;;;;;;4934285;29;20220;-69
2023/02/03 06:30:22;;;;;;;1.33;1.33;;;8.10;99.90;;;;;;4934746;29;20559;-70
2023/02/03 06:32:49;;;;;;;1.67;1.67;;;8.10;99.90;;;;;;4935078;29;20657;-71
2023/02/03 06:35:16;;;;;;;0.93;0.93;;;8.10;99.90;;;;;;4933411;29;20236;-69
2023/02/03 06:37:43;;;;;;;1.20;1.20;;;8.10;99.90;;;;;;4934863;29;20212;-69
2023/02/03 06:40:11;;;;;;;1.85;0.93;;;8.10;99.90;;;;;;4933820;29;20224;-68
2023/02/03 06:42:39;;;;;;;1.60;1.58;;;8.10;99.90;;;;;;4933600;29;20252;-68
2023/02/03 06:45:07;;;;;;;1.33;1.33;;;8.10;99.90;;;;;;4933654;29;20231;-69
2023/02/03 06:47:34;;;;;;;2.47;1.98;;;8.10;99.90;;;;;;4934535;29;20526;-67
2023/02/03 06:50:01;;;;;;;0.95;0.95;;;8.10;99.90;;;;;;4933877;29;20218;-68
2023/02/03 06:52:28;;;;;;;0.95;0.93;;;8.10;99.90;;;;;;4934207;29;20211;-69
2023/02/03 06:54:54;;;;;;;1.75;1.58;;;8.10;99.90;;;;;;4930041;29;20240;-69
2023/02/03 06:57:21;;;;;;;1.55;1.45;;;8.10;99.90;;;;;;4933152;29;20208;-69
2023/02/03 06:59:49;;;;;;;0.82;0.82;;;8.10;99.90;;;;;;4932301;29;20223;-68
2023/02/03 07:02:16;;;;;;;1.52;1.52;;;8.10;99.90;;;;;;4930909;29;20236;-67
2023/02/03 07:04:43;;;;;;;1.33;1.23;;;8.10;99.90;;;;;;4932426;29;20697;-69
2023/02/03 07:07:11;;;;;;;1.15;1.15;;;8.10;99.90;;;;;;4926951;29;20216;-69
2023/02/03 07:09:38;;;;;;;2.83;2.05;;;8.10;99.90;;;;;;4930662;29;20583;-67
2023/02/03 07:12:05;;;;;;;3.33;1.95;;;8.10;99.90;;;;;;4933103;29;20235;-68
2023/02/03 07:14:34;;;;;;;1.05;1.05;;;8.10;99.90;;;;;;4932955;29;20212;-68
2023/02/03 07:17:02;;;;;;;16.17;1.23;;;8.10;99.90;;;;;;4932479;29;20212;-68
2023/02/03 07:19:29;;;;;;;2.50;2.00;;;8.10;99.90;;;;;;4930472;29;20219;-68
2023/02/03 07:21:56;;;;;;;0.95;0.95;;;8.10;99.90;;;;;;4932711;29;20266;-69
2023/02/03 07:24:23;;;;;;;2.55;2.40;;;8.10;99.90;;;;;;4933683;29;20213;-68
2023/02/03 07:26:49;;;;;;;0.70;0.70;;;8.10;99.90;;;;;;4932480;29;20707;-69
2023/02/03 07:29:16;;;;;;;1.00;1.00;;;8.10;99.90;;;;;;4932348;29;20212;-69
2023/02/03 07:31:43;;;;;;;1.88;0.75;;;8.10;99.90;;;;;;4931554;29;20211;-68
2023/02/03 07:34:11;;;;;;;0.82;0.82;;;8.10;99.90;;;;;;4933355;29;20239;-68
2023/02/03 07:36:37;;;;;;;1.17;1.13;;;8.20;99.90;;;;;;4931212;29;20239;-69
2023/02/03 07:39:04;;;;;;;0.95;0.75;;;8.20;99.90;;;;;;4930030;29;20208;-69
2023/02/03 07:41:31;;;;;;;1.05;1.05;;;8.20;99.90;;;;;;4932975;29;20228;-68
2023/02/03 07:43:58;;;;;;;2.70;2.53;;;8.20;99.90;;;;;;4931229;29;20219;-68
2023/02/03 07:46:24;;;;;;;0.85;0.73;;;8.20;99.90;;;;;;4933196;29;20701;-69
2023/02/03 07:48:51;;;;;;;0.40;0.32;;;8.20;99.90;;;;;;4930112;29;20221;-67
2023/02/03 07:51:19;;;;;;;6.93;1.88;;;8.20;99.90;;;;;;4932736;29;20663;-68
2023/02/03 07:53:46;;;;;;;1.23;1.23;;;8.20;99.90;;;;;;4931817;29;20696;-68
2023/02/03 07:56:13;;;;;;;0.77;0.77;;;8.50;99.90;;;;;;4932472;29;20254;-69
2023/02/03 07:58:40;;;;;;;0.85;0.57;;;8.30;99.90;;;;;;4934129;29;20597;-69
2023/02/03 08:01:12;;;;;;;1.75;1.20;;;8.30;99.90;;;;;;4932141;29;20236;-69
2023/02/03 08:03:38;;;;;;;1.45;1.35;;;8.30;99.90;;;;;;4924969;29;20550;-68
2023/02/03 08:06:06;;;;;;;1.40;1.25;;;8.30;99.90;;;;;;4929318;29;20236;-69
2023/02/03 08:08:34;;;;;;;1.08;0.82;;;8.30;99.90;;;;;;4932674;29;20204;-69
2023/02/03 08:11:00;;;;;;;1.05;1.05;;;8.30;99.90;;;;;;4929350;29;20220;-69
2023/02/03 08:13:28;;;;;;;0.90;0.50;;;8.30;99.90;;;;;;4927588;29;20208;-69
2023/02/03 08:15:54;;;;;;;0.63;0.63;;;8.30;99.90;;;;;;4931480;29;20242;-69
2023/02/03 08:18:21;;;;;;;1.20;1.20;;;8.40;99.90;;;;;;4933344;29;20210;-69
2023/02/03 08:20:48;;;;;;;0.85;0.85;;;8.40;99.90;;;;;;4926122;29;20220;-68
2023/02/03 08:23:15;;;;;;;0.40;0.40;;;8.40;99.90;;;;;;4931290;29;20229;-69
2023/02/03 08:25:43;;;;;;;0.77;0.77;;;8.40;99.90;;;;;;4933346;29;20601;-69
2023/02/03 08:28:09;;;;;;;1.23;1.23;;;8.40;99.90;;;;;;4933692;29;20554;-69
2023/02/03 08:30:37;;;;;;;1.00;1.00;;;8.40;99.90;;;;;;4933436;29;20223;-68
2023/02/03 08:33:04;;;;;;;0.50;0.50;;;8.50;99.90;;;;;;4932151;29;20224;-68
2023/02/03 08:35:30;;;;;;;0.40;0.40;;;8.50;99.90;;;;;;4932906;29;20227;-69
2023/02/03 08:37:57;;;;;;;0.55;0.55;;;8.50;99.90;;;;;;4933449;29;20209;-70
2023/02/03 08:40:24;;;;;;;0.93;0.93;;;8.50;99.90;;;;;;4933744;29;20219;-70
2023/02/03 08:42:52;;;;;;;0.65;0.65;;;8.50;99.90;;;;;;4932808;29;20268;-69
2023/02/03 08:45:19;;;;;;;0.68;0.68;;;8.50;99.90;;;;;;4933085;29;20235;-69
2023/02/03 08:47:46;;;;;;;12.40;3.70;;;8.50;99.90;;;;;;4933696;29;20217;-70
2023/02/03 08:50:13;;;;;;;1.40;0.55;;;8.50;99.90;;;;;;4926308;29;20216;-69
2023/02/03 08:52:40;;;;;;;1.48;0.77;;;8.50;99.90;;;;;;4932901;29;20205;-69
2023/02/03 08:55:07;;;;;;;0.40;0.40;;;8.50;99.90;;;;;;4932192;29;20848;-70
2023/02/03 08:57:35;;;;;;;8.32;0.93;;;8.30;99.90;;;;;;4933121;29;20243;-69
2023/02/03 09:00:04;;;;;;;1.70;0.93;;;8.00;99.90;;;;;;4932700;29;20242;-71
2023/02/03 09:02:31;;;;;;;2.58;0.50;;;8.00;99.90;;;;;;4935979;29;20235;-71
2023/02/03 09:04:58;;;;;;;0.93;0.90;;;7.90;99.90;;;;;;4936818;29;20605;-70
2023/02/03 09:07:24;;;;;;;0.55;0.50;;;7.80;99.90;;;;;;4933550;29;20282;-69
2023/02/03 09:09:51;;;;;;;5.30;1.05;;;7.80;99.90;;;;;;4935801;29;20589;-68
2023/02/03 09:12:18;;;;;;;3.22;1.15;;;7.80;99.90;;;;;;4935513;29;20212;-69
2023/02/03 09:14:45;;;;;;;0.70;0.70;;;7.80;99.90;;;;;;4932881;29;20232;-69
2023/02/03 09:17:13;;;;;;;1.85;1.75;;;7.80;99.90;;;;;;4937011;29;20215;-69
2023/02/03 09:19:39;;;;;;;2.50;0.57;;;7.90;99.90;;;;;;4936611;29;20674;-70
2023/02/03 09:22:06;;;;;;;1.55;0.88;;;7.90;99.90;;;;;;4934805;29;20235;-69
2023/02/03 09:24:33;;;;;;;2.80;0.45;;;7.90;99.90;;;;;;4936202;29;20209;-71
2023/02/03 09:27:00;;;;;;;0.40;0.40;;;7.90;99.90;;;;;;4935649;29;20208;-68
2023/02/03 09:29:27;;;;;;;3.22;0.40;;;7.90;99.90;;;;;;4937650;29;20208;-70
2023/02/03 09:31:54;;;;;;;0.68;0.68;;;7.90;99.90;;;;;;4937198;29;20644;-69
2023/02/03 09:34:22;;;;;;;3.65;1.75;;;7.90;99.90;;;;;;4938014;29;20216;-70
2023/02/03 09:36:50;;;;;;;0.55;0.30;;;7.90;99.90;;;;;;4935156;29;20227;-69
2023/02/03 09:39:17;;;;;;;4.78;2.75;;;7.90;99.90;;;;;;4935488;29;20647;-70
2023/02/03 09:42:06;;;;;;;0.40;0.40;;;7.90;99.90;;;;;;4936195;29;20687;-69
2023/02/03 09:44:38;;;;;;;2.05;1.38;;;7.90;99.90;;;;;;4917114;29;20230;-70
2023/02/03 09:47:11;;;;;;;20.45;2.22;;;8.00;99.90;;;;;;4931177;29;20212;-70
2023/02/03 09:49:42;;;;;;;3.70;0.73;;;8.00;99.90;;;;;;4935991;29;20209;-69
2023/02/03 09:52:13;;;;;;;0.20;0.20;;;8.00;99.90;;;;;;4936058;29;20219;-69
2023/02/03 09:54:44;;;;;;;1.45;0.73;;;8.00;99.90;;;;;;4935899;29;20213;-68
2023/02/03 09:57:17;;;;;;;12.77;1.35;;;8.00;99.90;;;;;;4935470;29;20212;-68
2023/02/03 09:59:44;;;;;;;1.65;0.70;;;8.10;99.90;;;;;;4935657;29;20238;-70
2023/02/03 10:02:23;;;;;;;18.85;3.20;;;8.10;99.90;;;;;;4935060;29;20227;-69
2023/02/03 10:04:58;;;;;;;0.17;0.17;;;8.20;99.90;;;;;;4935523;29;20701;-69
2023/02/03 10:07:34;;;;;;;0.63;0.63;;;8.20;99.90;;;;;;4933116;29;20226;-69
2023/02/03 10:10:09;;;;;;;28.92;2.33;;;8.30;99.90;;;;;;4934342;29;20216;-69
2023/02/03 10:12:59;;;;;;;1.40;1.05;;;8.30;99.90;;;;;;4932213;29;20203;-70
2023/02/03 10:15:56;;;;;;;1.17;0.40;;;8.30;99.90;;;;;;4928022;29;20598;-69
2023/02/03 10:18:27;;;;;;;8.93;3.35;;;8.30;99.90;;;;;;4925243;29;20204;-70
2023/02/03 10:20:58;;;;;;;9.23;1.13;;;8.40;99.90;;;;;;4933402;29;20211;-70
2023/02/03 10:23:30;;;;;;;8.63;0.80;;;8.40;99.90;;;;;;4934363;29;20225;-69
2023/02/03 10:26:01;;;;;;;17.33;2.90;;;8.50;99.90;;;;;;4933503;29;20243;-68
2023/02/03 10:28:32;;;;;;;4.38;1.23;;;8.60;99.90;;;;;;4934674;29;20220;-69
2023/02/03 10:31:03;;;;;;;0.68;0.68;;;8.70;99.90;;;;;;4933433;29;20208;-69
2023/02/03 10:33:31;;;;;;;4.57;1.63;;;8.60;99.90;;;;;;4935765;29;20305;-69
2023/02/03 10:36:07;;;;;;;0.85;0.85;;;8.70;99.90;;;;;;4934256;29;20233;-69
2023/02/03 10:38:54;;;;;;;7.28;1.75;;;8.70;99.90;;;;;;4935865;29;20555;-70
2023/02/03 10:41:23;;;;;;;2.85;2.10;;;8.60;99.90;;;;;;4926747;29;20212;-69
2023/02/03 10:43:51;;;;;;;3.92;0.95;;;8.70;99.90;;;;;;4934576;29;20232;-69
2023/02/03 10:46:19;;;;;;;1.38;1.38;;;8.70;99.90;;;;;;4933004;29;20406;-69
2023/02/03 10:48:48;;;;;;;6.25;2.38;;;8.70;99.90;;;;;;4932152;29;20692;-70
2023/02/03 10:51:21;;;;;;;12.73;2.17;;;8.70;99.90;;;;;;4935305;29;20619;-69
2023/02/03 10:53:51;;;;;;;5.75;1.38;;;8.70;99.90;;;;;;4935925;29;20223;-68
2023/02/03 10:56:21;;;;;;;1.88;1.35;;;8.70;99.90;;;;;;4934303;29;20363;-68
2023/02/03 10:58:50;;;;;;;1.05;0.65;;;8.70;99.90;;;;;;4935497;29;20220;-68
2023/02/03 11:01:19;;;;;;;0.93;0.93;;;8.70;99.90;;;;;;4934274;29;20208;-70
2023/02/03 11:03:56;;;;;;;5.03;1.33;;;8.70;99.90;;;;;;4937666;29;20231;-68
2023/02/03 11:06:25;;;;;;;3.00;1.92;;;8.70;99.90;;;;;;4936940;29;20231;-69
2023/02/03 11:08:52;;;;;;;3.80;1.40;;;8.70;99.90;;;;;;4938383;29;20212;-68
2023/02/03 11:11:24;;;;;;;14.63;0.85;;;8.70;99.90;;;;;;4934884;29;20661;-69
2023/02/03 11:14:12;;;;;;;16.45;2.53;;;8.80;99.90;;;;;;4937312;29;20232;-69
2023/02/03 11:16:39;;;;;;;14.20;2.43;;;8.80;99.90;;;;;;4904244;23;1067163;-64
2023/02/03 11:19:15;;;;;;;20.45;2.13;;;8.90;99.90;;;;;;4915080;29;20221;-64
2023/02/03 11:21:46;;;;;;;3.83;1.13;;;9.00;99.90;;;;;;4915004;29;20295;-65
2023/02/03 11:24:19;;;;;;;2.60;1.10;;;9.00;99.90;;;;;;4913961;29;20208;-65
2023/02/03 11:26:49;;;;;;;2.95;1.45;;;9.10;99.90;;;;;;4914398;29;20607;-68
2023/02/03 11:29:19;;;;;;;11.90;1.95;;;9.10;99.90;;;;;;4914541;29;20214;-65
2023/02/03 11:31:49;;;;;;;7.10;2.45;;;9.10;99.90;;;;;;4914701;29;20213;-66
2023/02/03 11:34:18;;;;;;;4.45;3.33;;;9.10;99.90;;;;;;4911204;29;20852;-65
2023/02/03 11:36:46;;;;;;;0.77;0.77;;;9.10;99.90;;;;;;4913664;29;20236;-66
2023/02/03 11:39:23;;;;;;;4.40;1.48;;;9.10;99.90;;;;;;4914225;29;20209;-66
2023/02/03 11:41:50;;;;;;;13.38;2.95;;;9.20;99.90;;;;;;4915145;29;20209;-67
2023/02/03 11:44:20;;;;;;;1.90;1.77;;;9.20;99.90;;;;;;4914034;29;20236;-67
2023/02/03 11:46:49;;;;;;;1.58;1.35;;;9.20;99.90;;;;;;4914616;29;20233;-67
2023/02/03 11:49:52;;;;;;;1.92;0.88;;;9.20;99.90;;;;;;4914965;29;20228;-68
2023/02/03 11:52:37;;;;;;;7.90;1.27;;;9.10;99.90;;;;;;4913684;29;20639;-66
2023/02/03 11:55:13;;;;;;;1.00;1.00;;;9.20;99.90;;;;;;4913900;29;20247;-67
2023/02/03 11:57:52;;;;;;;4.97;2.10;;;9.20;99.90;;;;;;4909406;29;20562;-68
2023/02/03 12:00:30;;;;;;;4.90;1.00;;;9.20;99.90;;;;;;4913914;29;20213;-67
2023/02/03 12:03:37;;;;;;;4.57;1.27;;;9.10;99.90;;;;;;4914206;29;20236;-68
2023/02/03 12:06:24;;;;;;;3.25;0.73;;;9.10;99.90;;;;;;4899627;29;20233;-69
2023/02/03 12:09:09;;;;;;;1.20;1.10;;;9.10;99.90;;;;;;4914749;29;20209;-68
2023/02/03 12:11:57;;;;;;;2.15;1.65;;;9.10;99.90;;;;;;4895625;29;20226;-67
2023/02/03 12:14:37;;;;;;;3.28;1.98;;;9.10;99.90;;;;;;4894916;29;20225;-68
2023/02/03 12:17:38;;;;;;;10.88;2.05;;;9.10;99.90;;;;;;4908168;29;20251;-67
2023/02/03 12:20:25;;;;;;;0.45;0.45;;;9.10;99.90;;;;;;4914523;29;20216;-67
2023/02/03 12:23:00;;;;;;;1.05;0.88;;;9.10;99.90;;;;;;4910390;29;20239;-69
2023/02/03 12:25:48;;;;;;;1.20;1.08;;;9.10;99.90;;;;;;4913220;29;20225;-68
2023/02/03 12:28:28;;;;;;;2.33;2.20;;;9.10;99.90;;;;;;4914035;29;20552;-68
2023/02/03 12:31:00;;;;;;;10.57;2.38;;;9.10;99.90;;;;;;4913857;29;20236;-68
2023/02/03 12:33:32;;;;;;;4.53;2.72;;;9.20;99.90;;;;;;4914362;29;20216;-68
2023/02/03 12:36:07;;;;;;;8.25;2.38;;;9.20;99.90;;;;;;4911565;29;20253;-68
2023/02/03 12:38:40;;;;;;;20.67;1.48;;;9.20;99.90;;;;;;4914483;29;20303;-67
2023/02/03 12:41:13;;;;;;;7.78;2.60;;;9.10;99.90;;;;;;4913902;29;20659;-66
2023/02/03 12:43:48;;;;;;;1.38;1.38;;;9.20;99.90;;;;;;4914031;29;20238;-67
2023/02/03 12:46:18;;;;;;;6.10;1.60;;;9.20;99.90;;;;;;4912822;29;20234;-66
2023/02/03 12:48:50;;;;;;;7.63;1.60;;;9.20;99.90;;;;;;4911667;29;20800;-66
2023/02/03 12:51:27;;;;;;;0.82;0.80;;;9.10;99.90;;;;;;4913819;29;20205;-68
2023/02/03 12:54:00;;;;;;;0.10;0.10;;;9.10;99.90;;;;;;4914102;29;20223;-67
2023/02/03 12:56:35;;;;;;;1.45;0.50;;;9.10;99.90;;;;;;4913595;29;20572;-67
2023/02/03 12:59:06;;;;;;;4.38;2.03;;;9.10;99.90;;;;;;4914360;29;20607;-69
2023/02/03 13:01:36;;;;;;;0.93;0.93;;;9.10;99.90;;;;;;4913961;29;20217;-66
2023/02/03 13:04:10;;;;;;;2.90;1.48;;;9.10;99.90;;;;;;4913027;29;20264;-67
2023/02/03 13:06:47;;;;;;;1.58;1.48;;;9.00;99.90;;;;;;4913161;29;20238;-67
2023/02/03 13:09:25;;;;;;;10.10;1.48;;;9.00;99.90;;;;;;4914205;29;20219;-68
2023/02/03 13:12:01;;;;;;;0.70;0.70;;;9.00;99.90;;;;;;4914298;29;20215;-67
2023/02/03 13:14:32;;;;;;;16.67;2.08;;;9.10;99.90;;;;;;4913830;29;20238;-68
2023/02/03 13:17:06;;;;;;;21.80;2.10;;;9.10;99.90;;;;;;4910989;29;20710;-67
2023/02/03 13:19:42;;;;;;;3.47;1.40;;;9.10;99.90;;;;;;4913662;29;20308;-67
2023/02/03 13:22:12;;;;;;;3.83;1.52;;;9.10;99.90;;;;;;4913626;29;20209;-66
2023/02/03 13:24:41;;;;;;;6.38;1.67;;;9.00;99.90;;;;;;4914078;29;20228;-67
2023/02/03 13:27:33;;;;;;;1.05;0.95;;;9.00;99.90;;;;;;4913272;29;20238;-68
2023/02/03 13:30:22;;;;;;;5.70;2.08;;;9.00;99.90;;;;;;4913493;29;20220;-67
2023/02/03 13:33:13;;;;;;;9.23;1.20;;;9.00;99.90;;;;;;4913964;29;20682;-66
2023/02/03 13:35:55;;;;;;;6.22;1.17;;;9.00;99.90;;;;;;4911857;29;20205;-67
2023/02/03 13:38:45;;;;;;;9.88;1.33;;;9.00;99.90;;;;;;4907088;29;20202;-68
2023/02/03 13:41:21;;;;;;;1.17;1.05;;;9.00;99.90;;;;;;4914341;29;20218;-67
2023/02/03 13:43:51;;;;;;;2.92;0.85;;;9.00;99.90;;;;;;4914176;29;20237;-67
2023/02/03 13:46:23;;;;;;;2.67;1.20;;;9.00;99.90;;;;;;4913295;29;20603;-71
2023/02/03 13:48:51;;;;;;;0.20;0.20;;;9.00;99.90;;;;;;4917653;29;20292;-67
2023/02/03 13:51:21;;;;;;;0.55;0.50;;;8.90;99.90;;;;;;4916306;29;20212;-67
2023/02/03 13:53:50;;;;;;;6.13;1.10;;;9.00;99.90;;;;;;4917857;29;20212;-67
2023/02/03 13:56:21;;;;;;;0.52;0.52;;;8.90;99.90;;;;;;4916543;29;20249;-67
2023/02/03 13:59:02;;;;;;;3.80;2.60;;;8.90;99.90;;;;;;4917322;29;20209;-67
2023/02/03 14:01:39;;;;;;;0.50;0.50;;;8.90;99.90;;;;;;4916761;29;20223;-68
2023/02/03 14:04:08;;;;;;;13.07;2.22;;;8.90;99.90;;;;;;4917700;29;20233;-69
2023/02/03 14:07:00;;;;;;;4.65;1.08;;;8.90;99.90;;;;;;4916042;29;20724;-68
2023/02/03 14:09:40;;;;;;;7.63;2.20;;;8.80;99.90;;;;;;4915480;29;20213;-67
2023/02/03 14:12:19;;;;;;;4.55;0.95;;;8.80;99.90;;;;;;4917066;29;20212;-67
2023/02/03 14:15:05;;;;;;;1.98;1.98;;;8.70;99.90;;;;;;4917304;29;20216;-68
2023/02/03 14:17:55;;;;;;;1.00;0.73;;;8.80;99.90;;;;;;4917118;29;20238;-68
2023/02/03 14:20:41;;;;;;;18.48;3.78;;;8.70;99.90;;;;;;4917629;29;20208;-69
2023/02/03 14:23:14;;;;;;;0.20;0.20;;;8.70;99.90;;;;;;4913915;29;20233;-68
2023/02/03 14:25:46;;;;;;;3.92;2.47;;;8.70;99.90;;;;;;4914503;29;20224;-67
2023/02/03 14:28:15;;;;;;;9.45;0.85;;;8.70;99.90;;;;;;4916263;29;20209;-68
2023/02/03 14:31:09;;;;;;;4.90;1.30;;;8.70;99.90;;;;;;4916225;29;20220;-66
2023/02/03 14:34:14;;;;;;;2.00;1.90;;;8.60;99.90;;;;;;4916715;29;20212;-67
2023/02/03 14:36:53;;;;;;;1.65;0.52;;;8.60;99.90;;;;;;4908520;29;20231;-66
2023/02/03 14:40:02;;;;;;;5.25;1.30;;;8.60;99.90;;;;;;4916330;29;20214;-67
2023/02/03 14:43:17;;;;;;;0.68;0.68;;;8.60;99.90;;;;;;4910673;29;20733;-67
2023/02/03 14:46:09;;;;;;;9.18;1.25;;;8.50;99.90;;;;;;4897204;29;20610;-68
2023/02/03 14:49:02;;;;;;;11.57;2.70;;;8.50;99.90;;;;;;4916285;29;20229;-67
2023/02/03 14:51:43;;;;;;;2.67;2.50;;;8.50;99.90;;;;;;4915846;29;20212;-68
2023/02/03 14:54:24;;;;;;;5.68;1.33;;;8.50;99.90;;;;;;4916253;29;20293;-70
2023/02/03 14:57:18;;;;;;;16.67;2.80;;;8.50;99.90;;;;;;4915406;29;20248;-68
2023/02/03 14:59:47;;;;;;;3.08;1.40;;;8.50;99.90;;;;;;4911256;29;20209;-68
2023/02/03 15:02:18;;;;;;;1.95;0.90;;;8.50;99.90;;;;;;4916212;29;20209;-67
2023/02/03 15:04:49;;;;;;;1.85;1.65;;;8.40;99.90;;;;;;4915832;29;20871;-65
2023/02/03 15:07:43;;;;;;;14.70;2.00;;;8.40;99.90;;;;;;4914640;29;20244;-64
2023/02/03 15:10:15;;;;;;;2.70;1.50;;;8.40;99.90;;;;;;4915438;29;20213;-68
2023/02/03 15:12:48;;;;;;;2.55;2.38;;;8.40;99.90;;;;;;4915890;29;20220;-68
2023/02/03 15:15:21;;;;;;;1.67;1.00;;;8.40;99.90;;;;;;4914306;29;20237;-67
2023/02/03 15:17:48;;;;;;;2.05;0.95;;;8.40;99.90;;;;;;4914937;29;20311;-67
2023/02/03 15:20:27;;;;;;;2.60;1.63;;;8.40;99.90;;;;;;4915741;29;20216;-68
2023/02/03 15:22:54;;;;;;;2.13;1.90;;;8.40;99.90;;;;;;4915254;29;20220;-68
2023/02/03 15:25:24;;;;;;;2.38;1.63;;;8.30;99.90;;;;;;4914917;29;20605;-67
2023/02/03 15:27:51;;;;;;;1.10;1.10;;;8.30;99.90;;;;;;4914845;29;20670;-68
2023/02/03 15:30:23;;;;;;;3.33;1.65;;;8.30;99.90;;;;;;4908118;29;20207;-68
2023/02/03 15:33:01;;;;;;;0.30;0.30;;;8.30;99.90;;;;;;4914029;29;20294;-68
2023/02/03 15:35:31;;;;;;;12.57;1.88;;;8.30;99.90;;;;;;4915025;29;20208;-68
2023/02/03 15:38:03;;;;;;;0.65;0.65;;;8.20;99.90;;;;;;4913142;29;20229;-68
2023/02/03 15:40:37;;;;;;;1.08;1.08;;;8.20;99.90;;;;;;4914622;29;20662;-68
2023/02/03 15:43:09;;;;;;;1.10;0.55;;;8.10;99.90;;;;;;4915169;29;20316;-67
2023/02/03 15:45:40;;;;;;;10.10;2.10;;;8.10;99.90;;;;;;4914368;29;20208;-68
2023/02/03 15:48:15;;;;;;;10.55;1.60;;;8.10;99.90;;;;;;4912730;29;20205;-67
2023/02/03 15:50:47;;;;;;;8.63;2.53;;;8.10;99.90;;;;;;4913978;29;20658;-68
2023/02/03 15:53:20;;;;;;;2.25;2.15;;;8.10;99.90;;;;;;4914587;29;20571;-68
2023/02/03 15:55:49;;;;;;;1.75;1.02;;;8.10;99.90;;;;;;4913293;29;20293;-67
2023/02/03 15:58:19;;;;;;;6.78;1.35;;;8.10;99.90;;;;;;4904625;29;21070;-67
2023/02/03 16:00:49;;;;;;;2.67;1.20;;;8.10;99.90;;;;;;4910398;29;20295;-67
2023/02/03 16:03:20;;;;;;;0.43;0.43;;;8.10;99.90;;;;;;4911617;29;20578;-68
2023/02/03 16:05:49;;;;;;;6.10;1.10;;;8.10;99.90;;;;;;4913978;29;20583;-67
2023/02/03 16:08:34;;;;;;;2.50;1.95;;;8.10;99.90;;;;;;4913679;29;20615;-67
2023/02/03 16:11:02;;;;;;;2.35;1.70;;;8.10;99.90;;;;;;4912581;29;20208;-67
2023/02/03 16:13:31;;;;;;;33.53;1.70;;;8.10;99.90;;;;;;4914131;29;20646;-67
2023/02/03 16:16:06;;;;;;;3.50;1.27;;;8.10;99.90;;;;;;4903522;29;20267;-68
2023/02/03 16:18:35;;;;;;;3.80;1.60;;;8.10;99.90;;;;;;4912349;29;20212;-68
2023/02/03 16:21:04;;;;;;;8.50;1.65;;;8.00;99.90;;;;;;4913080;29;20610;-68
2023/02/03 16:23:32;;;;;;;4.32;1.15;;;8.10;99.90;;;;;;4911912;29;20212;-68
2023/02/03 16:26:18;;;;;;;1.60;1.42;;;8.10;99.90;;;;;;4912645;29;20235;-68
2023/02/03 16:51:07;;;;;;;5.78;1.02;;;8.00;99.90;;;;;;4912758;29;20255;-67
2023/02/03 16:53:35;;;;;;;2.67;2.10;;;8.00;99.90;;;;;;4913633;29;20209;-66
2023/02/03 16:56:04;;;;;;;6.38;1.10;;;8.00;99.90;;;;;;4913229;29;20601;-67
2023/02/03 16:58:31;;;;;;;2.53;2.10;;;7.90;99.90;;;;;;4914034;29;20668;-67
2023/02/03 17:00:59;;;;;;;1.55;1.38;;;7.80;99.90;;;;;;4912047;29;20216;-67
2023/02/03 17:03:28;;;;;;;5.97;1.02;;;7.80;99.90;;;;;;4913906;29;20211;-68
2023/02/03 17:05:56;;;;;;;17.92;3.92;;;7.80;99.90;;;;;;4912875;29;20777;-68
2023/02/03 17:08:25;;;;;;;8.15;1.58;;;7.70;99.90;;;;;;4913514;29;20213;-67
2023/02/03 17:10:53;;;;;;;0.60;0.60;;;7.70;99.90;;;;;;4910414;29;20307;-68
2023/02/03 17:13:23;;;;;;;1.42;0.75;;;7.70;99.90;;;;;;4912883;29;20666;-68
2023/02/03 17:15:52;;;;;;;1.30;1.20;;;7.70;99.90;;;;;;4913181;29;20299;-68
2023/02/03 17:18:19;;;;;;;2.60;1.25;;;7.70;99.90;;;;;;4942936;23;20232;-69
2023/02/03 17:20:46;;;;;;;4.75;1.20;;;7.70;99.90;;;;;;4940833;28;20231;-69
2023/02/03 17:23:15;;;;;;;5.85;0.60;;;7.70;99.90;;;;;;4934665;29;20861;-69
2023/02/03 17:25:44;;;;;;;7.82;2.80;;;7.70;99.90;;;;;;4935883;29;20615;-69
2023/02/03 17:28:13;;;;;;;4.53;1.80;;;7.70;99.90;;;;;;4934342;29;20232;-69
2023/02/03 17:30:40;;;;;;;5.65;1.10;;;7.70;99.90;;;;;;4935948;29;20207;-69
2023/02/03 17:33:10;;;;;;;9.18;1.45;;;7.70;99.90;;;;;;4935119;29;20650;-69
2023/02/03 17:35:38;;;;;;;8.13;1.75;;;7.70;99.90;;;;;;4934494;29;20226;-70
2023/02/03 17:38:05;;;;;;;1.50;0.57;;;7.60;99.90;;;;;;4935386;29;20246;-68
2023/02/03 17:40:31;;;;;;;3.95;1.48;;;7.60;99.90;;;;;;4936117;29;20574;-68
2023/02/03 17:42:58;;;;;;;7.80;2.80;;;7.60;99.90;;;;;;4937492;29;20215;-68
2023/02/03 17:45:26;;;;;;;3.08;0.63;;;7.50;99.90;;;;;;4936676;29;20235;-68
2023/02/03 17:47:53;;;;;;;4.10;1.73;;;7.50;99.90;;;;;;4936563;29;20236;-68
2023/02/03 17:50:20;;;;;;;9.68;3.35;;;7.50;99.90;;;;;;4934082;29;20204;-69
2023/02/03 17:52:46;;;;;;;8.45;2.28;;;7.50;99.90;;;;;;4936009;29;20235;-69
2023/02/03 17:55:13;;;;;;;6.07;1.08;;;7.60;99.90;;;;;;4936839;29;20215;-69
2023/02/03 17:57:40;;;;;;;4.80;2.10;;;7.60;99.90;;;;;;4937022;29;20228;-69
2023/02/03 18:00:09;;;;;;;3.30;0.93;;;7.60;99.90;;;;;;4935783;29;20215;-69
2023/02/03 18:02:37;;;;;;;3.33;1.20;;;7.60;99.90;;;;;;4934973;29;20315;-69
2023/02/03 18:05:04;;;;;;;0.50;0.50;;;7.70;99.90;;;;;;4936457;29;20231;-69
2023/02/03 18:07:31;;;;;;;52.13;4.40;;;7.70;99.90;;;;;;4935538;29;20591;-68
2023/02/03 18:09:57;;;;;;;2.25;2.15;;;7.70;99.90;;;;;;4936402;29;20709;-70
2023/02/03 18:12:24;;;;;;;3.90;0.73;;;7.70;99.90;;;;;;4934195;29;20207;-69
2023/02/03 18:14:51;;;;;;;0.98;0.95;;;7.80;99.90;;;;;;4934103;29;20212;-68
2023/02/03 18:17:18;;;;;;;1.10;1.10;;;7.70;99.90;;;;;;4934047;29;20244;-69
2023/02/03 18:19:46;;;;;;;3.58;3.05;;;7.70;99.90;;;;;;4938618;29;20205;-69
2023/02/03 18:22:13;;;;;;;1.65;0.88;;;7.80;99.90;;;;;;4935350;29;20212;-68
2023/02/03 18:24:43;;;;;;;2.10;2.00;;;7.70;99.90;;;;;;4935149;29;20627;-68
2023/02/03 18:27:15;;;;;;;3.50;1.05;;;7.70;99.90;;;;;;4935055;29;20231;-68
2023/02/03 18:29:43;;;;;;;5.93;1.80;;;7.70;99.90;;;;;;4934563;29;20262;-68
2023/02/03 18:32:11;;;;;;;1.33;0.55;;;7.60;99.90;;;;;;4932481;29;20219;-68
2023/02/03 18:34:37;;;;;;;0.90;0.52;;;7.60;99.90;;;;;;4935172;29;20584;-69
2023/02/03 18:37:05;;;;;;;6.68;1.00;;;7.50;99.90;;;;;;4933582;29;20605;-70
2023/02/03 18:39:32;;;;;;;1.10;1.00;;;7.50;99.90;;;;;;4932529;29;20229;-69
2023/02/03 18:41:59;;;;;;;1.50;1.40;;;7.50;99.90;;;;;;4935359;29;20700;-68
2023/02/03 18:44:26;;;;;;;1.58;1.15;;;7.50;99.90;;;;;;4932404;29;20228;-68